sensor_id;sensor_type;location;lat;lon;timestamp;temperature;humidity
19044;DHT22;9654;52.302;8.120;2022-07-23T00:01:35;14.00;99.90
19044;DHT22;9654;52.302;8.120;2022-07-23T00:04:02;14.10;99.90
19044;DHT22;9654;52.302;8.120;2022-07-23T00:06:29;14.10;99.90
19044;DHT22;9654;52.302;8.120;2022-07-23T00:08:56;14.20;99.90
19044;DHT22;9654;52.302;8.120;2022-07-23T00:11:22;14.30;99.90
19044;DHT22;9654;52.302;8.120;2022-07-23T00:13:49;14.30;99.90
19044;DHT22;9654;52.302;8.120;2022-07-23T00:16:17;14.30;99.90
19044;DHT22;9654;52.302;8.120;2022-07-23T00:18:44;14.40;99.90
19044;DHT22;9654;52.302;8.120;2022-07-23T00:21:11;14.40;99.90
19044;DHT22;9654;52.302;8.120;2022-07-23T00:23:37;14.50;99.90
19044;DHT22;9654;52.302;8.120;2022-07-23T00:26:04;14.50;99.90
19044;DHT22;9654;52.302;8.120;2022-07-23T00:28:33;14.50;99.90
19044;DHT22;9654;52.302;8.120;2022-07-23T00:31:00;14.50;99.90
19044;DHT22;9654;52.302;8.120;2022-07-23T00:33:28;14.60;99.90
19044;DHT22;9654;52.302;8.120;2022-07-23T00:35:55;14.60;99.90
19044;DHT22;9654;52.302;8.120;2022-07-23T00:38:21;14.60;99.90
19044;DHT22;9654;52.302;8.120;2022-07-23T00:40:48;14.60;99.90
19044;DHT22;9654;52.302;8.120;2022-07-23T00:43:15;14.60;99.90
19044;DHT22;9654;52.302;8.120;2022-07-23T00:45:42;14.70;99.90
19044;DHT22;9654;52.302;8.120;2022-07-23T00:48:08;14.70;99.90
19044;DHT22;9654;52.302;8.120;2022-07-23T00:50:36;14.70;99.90
19044;DHT22;9654;52.302;8.120;2022-07-23T00:53:04;14.80;99.90
19044;DHT22;9654;52.302;8.120;2022-07-23T00:55:31;14.80;99.90
19044;DHT22;9654;52.302;8.120;2022-07-23T00:57:59;14.70;99.90
19044;DHT22;9654;52.302;8.120;2022-07-23T01:00:26;14.70;99.90
19044;DHT22;9654;52.302;8.120;2022-07-23T01:02:52;14.70;99.90
19044;DHT22;9654;52.302;8.120;2022-07-23T01:05:19;14.70;99.90
19044;DHT22;9654;52.302;8.120;2022-07-23T01:07:49;14.70;99.90
19044;DHT22;9654;52.302;8.120;2022-07-23T01:10:16;14.70;99.90
19044;DHT22;9654;52.302;8.120;2022-07-23T01:12:58;14.80;99.90
19044;DHT22;9654;52.302;8.120;2022-07-23T01:15:25;14.80;99.90
19044;DHT22;9654;52.302;8.120;2022-07-23T01:17:52;14.80;99.90
19044;DHT22;9654;52.302;8.120;2022-07-23T01:20:19;14.80;99.90
19044;DHT22;9654;52.302;8.120;2022-07-23T01:22:48;14.80;99.90
19044;DHT22;9654;52.302;8.120;2022-07-23T01:25:15;14.80;99.90
19044;DHT22;9654;52.302;8.120;2022-07-23T01:27:42;14.80;99.90
19044;DHT22;9654;52.302;8.120;2022-07-23T01:30:10;14.80;99.90
19044;DHT22;9654;52.302;8.120;2022-07-23T01:32:37;14.80;99.90
19044;DHT22;9654;52.302;8.120;2022-07-23T01:35:05;14.80;99.90
19044;DHT22;9654;52.302;8.120;2022-07-23T01:37:32;14.80;99.90
19044;DHT22;9654;52.302;8.120;2022-07-23T01:40:00;14.80;99.90
19044;DHT22;9654;52.302;8.120;2022-07-23T01:42:26;14.80;99.90
19044;DHT22;9654;52.302;8.120;2022-07-23T01:44:53;14.80;99.90
19044;DHT22;9654;52.302;8.120;2022-07-23T01:47:20;14.80;99.90
19044;DHT22;9654;52.302;8.120;2022-07-23T01:49:47;14.80;99.90
19044;DHT22;9654;52.302;8.120;2022-07-23T01:52:13;14.80;99.90
19044;DHT22;9654;52.302;8.120;2022-07-23T01:54:40;14.80;99.90
19044;DHT22;9654;52.302;8.120;2022-07-23T01:57:08;14.80;99.90
19044;DHT22;9654;52.302;8.120;2022-07-23T01:59:35;14.80;99.90
19044;DHT22;9654;52.302;8.120;2022-07-23T02:02:02;14.80;99.90
19044;DHT22;9654;52.302;8.120;2022-07-23T02:04:31;14.80;99.90
19044;DHT22;9654;52.302;8.120;2022-07-23T02:07:00;14.80;99.90
19044;DHT22;9654;52.302;8.120;2022-07-23T02:09:27;14.70;99.90
19044;DHT22;9654;52.302;8.120;2022-07-23T02:11:54;14.70;99.90
19044;DHT22;9654;52.302;8.120;2022-07-23T02:14:22;14.70;99.90
19044;DHT22;9654;52.302;8.120;2022-07-23T02:16:49;14.70;99.90
19044;DHT22;9654;52.302;8.120;2022-07-23T02:19:16;14.60;99.90
19044;DHT22;9654;52.302;8.120;2022-07-23T02:21:42;14.60;99.90
19044;DHT22;9654;52.302;8.120;2022-07-23T02:24:10;14.60;99.90
19044;DHT22;9654;52.302;8.120;2022-07-23T02:26:37;14.60;99.90
19044;DHT22;9654;52.302;8.120;2022-07-23T02:29:04;14.50;99.90
19044;DHT22;9654;52.302;8.120;2022-07-23T02:31:33;14.50;99.90
19044;DHT22;9654;52.302;8.120;2022-07-23T02:34:00;14.50;99.90
19044;DHT22;9654;52.302;8.120;2022-07-23T02:36:27;14.50;99.90
19044;DHT22;9654;52.302;8.120;2022-07-23T02:38:54;14.50;99.90
19044;DHT22;9654;52.302;8.120;2022-07-23T02:41:21;14.50;99.90
19044;DHT22;9654;52.302;8.120;2022-07-23T02:43:48;14.50;99.90
19044;DHT22;9654;52.302;8.120;2022-07-23T02:46:14;14.50;99.90
19044;DHT22;9654;52.302;8.120;2022-07-23T02:48:43;14.50;99.90
19044;DHT22;9654;52.302;8.120;2022-07-23T02:51:09;14.50;99.90
19044;DHT22;9654;52.302;8.120;2022-07-23T02:53:36;14.50;99.90
19044;DHT22;9654;52.302;8.120;2022-07-23T02:56:03;14.60;99.90
19044;DHT22;9654;52.302;8.120;2022-07-23T02:58:31;14.60;99.90
19044;DHT22;9654;52.302;8.120;2022-07-23T03:00:57;14.50;99.90
19044;DHT22;9654;52.302;8.120;2022-07-23T03:03:24;14.50;99.90
19044;DHT22;9654;52.302;8.120;2022-07-23T03:05:52;14.50;99.90
19044;DHT22;9654;52.302;8.120;2022-07-23T03:08:19;14.50;99.90
19044;DHT22;9654;52.302;8.120;2022-07-23T03:10:46;14.50;99.90
19044;DHT22;9654;52.302;8.120;2022-07-23T03:13:13;14.50;99.90
19044;DHT22;9654;52.302;8.120;2022-07-23T03:15:39;14.50;99.90
19044;DHT22;9654;52.302;8.120;2022-07-23T03:18:06;14.50;99.90
19044;DHT22;9654;52.302;8.120;2022-07-23T03:20:33;14.50;99.90
19044;DHT22;9654;52.302;8.120;2022-07-23T03:23:01;14.50;99.90
19044;DHT22;9654;52.302;8.120;2022-07-23T03:25:28;14.60;99.90
19044;DHT22;9654;52.302;8.120;2022-07-23T03:27:55;14.50;99.90
19044;DHT22;9654;52.302;8.120;2022-07-23T03:30:21;14.50;99.90
19044;DHT22;9654;52.302;8.120;2022-07-23T03:32:48;14.50;99.90
19044;DHT22;9654;52.302;8.120;2022-07-23T03:35:15;14.50;99.90
19044;DHT22;9654;52.302;8.120;2022-07-23T03:37:41;14.50;99.90
19044;DHT22;9654;52.302;8.120;2022-07-23T03:40:11;14.50;99.90
19044;DHT22;9654;52.302;8.120;2022-07-23T03:42:38;14.50;99.90
19044;DHT22;9654;52.302;8.120;2022-07-23T03:45:07;14.50;99.90
19044;DHT22;9654;52.302;8.120;2022-07-23T03:47:34;14.40;99.90
19044;DHT22;9654;52.302;8.120;2022-07-23T03:50:00;14.40;99.90
19044;DHT22;9654;52.302;8.120;2022-07-23T03:52:27;14.40;99.90
19044;DHT22;9654;52.302;8.120;2022-07-23T03:54:54;14.30;99.90
19044;DHT22;9654;52.302;8.120;2022-07-23T03:57:22;14.30;99.90
19044;DHT22;9654;52.302;8.120;2022-07-23T03:59:49;14.30;99.90
19044;DHT22;9654;52.302;8.120;2022-07-23T04:02:15;14.20;99.90
19044;DHT22;9654;52.302;8.120;2022-07-23T04:04:42;14.20;99.90
19044;DHT22;9654;52.302;8.120;2022-07-23T04:07:09;14.20;99.90
19044;DHT22;9654;52.302;8.120;2022-07-23T04:09:36;14.20;99.90
19044;DHT22;9654;52.302;8.120;2022-07-23T04:12:03;14.10;99.90
19044;DHT22;9654;52.302;8.120;2022-07-23T04:14:31;14.10;99.90
19044;DHT22;9654;52.302;8.120;2022-07-23T04:17:01;14.10;99.90
19044;DHT22;9654;52.302;8.120;2022-07-23T04:19:28;14.10;99.90
19044;DHT22;9654;52.302;8.120;2022-07-23T04:21:55;14.10;99.90
19044;DHT22;9654;52.302;8.120;2022-07-23T04:24:23;14.10;99.90
19044;DHT22;9654;52.302;8.120;2022-07-23T04:26:49;14.10;99.90
19044;DHT22;9654;52.302;8.120;2022-07-23T04:29:16;14.10;99.90
19044;DHT22;9654;52.302;8.120;2022-07-23T04:31:44;14.10;99.90
19044;DHT22;9654;52.302;8.120;2022-07-23T04:34:11;14.10;99.90
19044;DHT22;9654;52.302;8.120;2022-07-23T04:36:37;14.10;99.90
19044;DHT22;9654;52.302;8.120;2022-07-23T04:39:04;14.10;99.90
19044;DHT22;9654;52.302;8.120;2022-07-23T04:41:32;14.10;99.90
19044;DHT22;9654;52.302;8.120;2022-07-23T04:43:59;14.10;99.90
19044;DHT22;9654;52.302;8.120;2022-07-23T04:46:26;14.10;99.90
19044;DHT22;9654;52.302;8.120;2022-07-23T04:48:54;14.20;99.90
19044;DHT22;9654;52.302;8.120;2022-07-23T04:51:21;14.20;99.90
19044;DHT22;9654;52.302;8.120;2022-07-23T04:53:48;14.30;99.90
19044;DHT22;9654;52.302;8.120;2022-07-23T04:56:15;14.30;99.90
19044;DHT22;9654;52.302;8.120;2022-07-23T04:58:42;14.30;99.90
19044;DHT22;9654;52.302;8.120;2022-07-23T05:01:09;14.40;99.90
19044;DHT22;9654;52.302;8.120;2022-07-23T05:03:36;14.40;99.90
19044;DHT22;9654;52.302;8.120;2022-07-23T05:06:04;14.50;99.90
19044;DHT22;9654;52.302;8.120;2022-07-23T05:08:31;14.50;99.90
19044;DHT22;9654;52.302;8.120;2022-07-23T05:10:57;14.50;99.90
19044;DHT22;9654;52.302;8.120;2022-07-23T05:13:24;14.60;99.90
19044;DHT22;9654;52.302;8.120;2022-07-23T05:15:51;14.60;99.90
19044;DHT22;9654;52.302;8.120;2022-07-23T05:18:18;14.60;99.90
19044;DHT22;9654;52.302;8.120;2022-07-23T05:20:44;14.70;99.90
19044;DHT22;9654;52.302;8.120;2022-07-23T05:23:12;14.80;99.90
19044;DHT22;9654;52.302;8.120;2022-07-23T05:25:40;14.80;99.90
19044;DHT22;9654;52.302;8.120;2022-07-23T05:28:07;14.80;99.90
19044;DHT22;9654;52.302;8.120;2022-07-23T05:30:34;14.90;99.90
19044;DHT22;9654;52.302;8.120;2022-07-23T05:33:00;15.00;99.90
19044;DHT22;9654;52.302;8.120;2022-07-23T05:35:27;15.10;99.90
19044;DHT22;9654;52.302;8.120;2022-07-23T05:37:54;15.10;99.90
19044;DHT22;9654;52.302;8.120;2022-07-23T05:40:22;15.20;99.90
19044;DHT22;9654;52.302;8.120;2022-07-23T05:42:49;15.20;99.90
19044;DHT22;9654;52.302;8.120;2022-07-23T05:45:15;15.30;99.90
19044;DHT22;9654;52.302;8.120;2022-07-23T05:47:45;15.30;99.90
19044;DHT22;9654;52.302;8.120;2022-07-23T05:50:13;15.30;99.90
19044;DHT22;9654;52.302;8.120;2022-07-23T05:52:40;15.30;99.90
19044;DHT22;9654;52.302;8.120;2022-07-23T05:55:09;15.40;99.90
19044;DHT22;9654;52.302;8.120;2022-07-23T05:57:37;15.50;99.90
19044;DHT22;9654;52.302;8.120;2022-07-23T06:00:05;15.50;99.90
19044;DHT22;9654;52.302;8.120;2022-07-23T06:02:32;15.70;99.90
19044;DHT22;9654;52.302;8.120;2022-07-23T06:04:59;15.70;99.90
19044;DHT22;9654;52.302;8.120;2022-07-23T06:07:26;15.80;99.90
19044;DHT22;9654;52.302;8.120;2022-07-23T06:09:53;15.90;99.90
19044;DHT22;9654;52.302;8.120;2022-07-23T06:12:20;15.90;99.90
19044;DHT22;9654;52.302;8.120;2022-07-23T06:14:48;16.00;99.90
19044;DHT22;9654;52.302;8.120;2022-07-23T06:17:15;16.10;99.90
19044;DHT22;9654;52.302;8.120;2022-07-23T06:19:42;16.10;99.90
19044;DHT22;9654;52.302;8.120;2022-07-23T06:22:09;16.20;99.90
19044;DHT22;9654;52.302;8.120;2022-07-23T06:24:35;16.30;99.90
19044;DHT22;9654;52.302;8.120;2022-07-23T06:27:03;16.30;99.90
19044;DHT22;9654;52.302;8.120;2022-07-23T06:29:29;16.50;99.90
19044;DHT22;9654;52.302;8.120;2022-07-23T06:31:57;16.60;99.90
19044;DHT22;9654;52.302;8.120;2022-07-23T06:34:24;16.70;99.90
19044;DHT22;9654;52.302;8.120;2022-07-23T06:36:51;16.80;99.90
19044;DHT22;9654;52.302;8.120;2022-07-23T06:39:18;16.80;99.90
19044;DHT22;9654;52.302;8.120;2022-07-23T06:41:45;16.80;99.90
19044;DHT22;9654;52.302;8.120;2022-07-23T06:44:12;16.80;99.90
19044;DHT22;9654;52.302;8.120;2022-07-23T06:46:38;16.80;99.90
19044;DHT22;9654;52.302;8.120;2022-07-23T06:49:07;16.90;99.90
19044;DHT22;9654;52.302;8.120;2022-07-23T06:51:34;16.90;99.90
19044;DHT22;9654;52.302;8.120;2022-07-23T06:54:01;16.90;99.90
19044;DHT22;9654;52.302;8.120;2022-07-23T06:56:27;16.80;99.90
19044;DHT22;9654;52.302;8.120;2022-07-23T06:58:54;16.90;99.90
19044;DHT22;9654;52.302;8.120;2022-07-23T07:01:21;16.90;99.90
19044;DHT22;9654;52.302;8.120;2022-07-23T07:03:48;17.00;99.90
19044;DHT22;9654;52.302;8.120;2022-07-23T07:06:16;17.30;99.90
19044;DHT22;9654;52.302;8.120;2022-07-23T07:08:43;17.50;99.90
19044;DHT22;9654;52.302;8.120;2022-07-23T07:11:09;17.60;99.90
19044;DHT22;9654;52.302;8.120;2022-07-23T07:13:36;17.60;99.90
19044;DHT22;9654;52.302;8.120;2022-07-23T07:16:04;17.60;99.90
19044;DHT22;9654;52.302;8.120;2022-07-23T07:18:31;17.70;99.90
19044;DHT22;9654;52.302;8.120;2022-07-23T07:20:57;17.70;99.90
19044;DHT22;9654;52.302;8.120;2022-07-23T07:23:25;17.90;99.90
19044;DHT22;9654;52.302;8.120;2022-07-23T07:25:52;18.10;99.90
19044;DHT22;9654;52.302;8.120;2022-07-23T07:28:19;18.20;99.90
19044;DHT22;9654;52.302;8.120;2022-07-23T07:30:46;18.30;99.90
19044;DHT22;9654;52.302;8.120;2022-07-23T07:33:13;18.50;99.90
19044;DHT22;9654;52.302;8.120;2022-07-23T07:35:39;18.50;99.90
19044;DHT22;9654;52.302;8.120;2022-07-23T07:38:06;18.40;99.90
19044;DHT22;9654;52.302;8.120;2022-07-23T07:40:34;18.50;99.90
19044;DHT22;9654;52.302;8.120;2022-07-23T07:43:01;18.60;99.90
19044;DHT22;9654;52.302;8.120;2022-07-23T07:45:29;18.80;99.90
19044;DHT22;9654;52.302;8.120;2022-07-23T07:47:55;19.10;99.90
19044;DHT22;9654;52.302;8.120;2022-07-23T07:50:22;19.20;99.90
19044;DHT22;9654;52.302;8.120;2022-07-23T07:52:49;19.10;99.90
19044;DHT22;9654;52.302;8.120;2022-07-23T07:55:16;19.00;99.90
19044;DHT22;9654;52.302;8.120;2022-07-23T07:57:44;18.90;99.90
19044;DHT22;9654;52.302;8.120;2022-07-23T08:00:11;19.00;99.90
19044;DHT22;9654;52.302;8.120;2022-07-23T08:02:42;18.90;99.90
19044;DHT22;9654;52.302;8.120;2022-07-23T08:05:09;18.70;99.90
19044;DHT22;9654;52.302;8.120;2022-07-23T08:07:37;18.80;99.90
19044;DHT22;9654;52.302;8.120;2022-07-23T08:10:05;19.10;99.90
19044;DHT22;9654;52.302;8.120;2022-07-23T08:12:39;19.40;99.90
19044;DHT22;9654;52.302;8.120;2022-07-23T08:15:08;19.70;99.90
19044;DHT22;9654;52.302;8.120;2022-07-23T08:17:36;19.80;99.90
19044;DHT22;9654;52.302;8.120;2022-07-23T08:20:03;19.70;99.90
19044;DHT22;9654;52.302;8.120;2022-07-23T08:22:44;19.40;99.90
19044;DHT22;9654;52.302;8.120;2022-07-23T08:25:11;19.10;99.90
19044;DHT22;9654;52.302;8.120;2022-07-23T08:27:38;19.20;99.90
19044;DHT22;9654;52.302;8.120;2022-07-23T08:30:07;19.40;99.90
19044;DHT22;9654;52.302;8.120;2022-07-23T08:32:48;19.60;99.90
19044;DHT22;9654;52.302;8.120;2022-07-23T08:35:15;19.80;99.90
19044;DHT22;9654;52.302;8.120;2022-07-23T08:37:42;19.60;99.90
19044;DHT22;9654;52.302;8.120;2022-07-23T08:40:10;19.50;99.90
19044;DHT22;9654;52.302;8.120;2022-07-23T08:42:37;19.40;99.90
19044;DHT22;9654;52.302;8.120;2022-07-23T08:45:08;19.40;99.90
19044;DHT22;9654;52.302;8.120;2022-07-23T08:47:37;19.40;99.90
19044;DHT22;9654;52.302;8.120;2022-07-23T08:50:04;19.60;99.90
19044;DHT22;9654;52.302;8.120;2022-07-23T08:52:34;19.70;99.90
19044;DHT22;9654;52.302;8.120;2022-07-23T08:55:02;19.70;99.90
19044;DHT22;9654;52.302;8.120;2022-07-23T08:57:29;19.70;99.90
19044;DHT22;9654;52.302;8.120;2022-07-23T08:59:56;19.70;99.90
19044;DHT22;9654;52.302;8.120;2022-07-23T09:02:24;19.80;99.90
19044;DHT22;9654;52.302;8.120;2022-07-23T09:04:51;20.10;99.90
19044;DHT22;9654;52.302;8.120;2022-07-23T09:07:18;20.40;99.90
19044;DHT22;9654;52.302;8.120;2022-07-23T09:09:45;20.70;99.90
19044;DHT22;9654;52.302;8.120;2022-07-23T09:12:11;20.60;99.90
19044;DHT22;9654;52.302;8.120;2022-07-23T09:14:39;20.60;99.90
19044;DHT22;9654;52.302;8.120;2022-07-23T09:17:11;20.40;99.90
19044;DHT22;9654;52.302;8.120;2022-07-23T09:19:40;20.10;99.90
19044;DHT22;9654;52.302;8.120;2022-07-23T09:22:18;20.00;99.90
19044;DHT22;9654;52.302;8.120;2022-07-23T09:25:02;20.00;99.90
19044;DHT22;9654;52.302;8.120;2022-07-23T09:27:46;20.30;99.90
19044;DHT22;9654;52.302;8.120;2022-07-23T09:30:13;20.50;99.90
19044;DHT22;9654;52.302;8.120;2022-07-23T09:32:40;20.40;99.90
19044;DHT22;9654;52.302;8.120;2022-07-23T09:35:09;20.30;99.90
19044;DHT22;9654;52.302;8.120;2022-07-23T09:37:36;20.30;99.90
19044;DHT22;9654;52.302;8.120;2022-07-23T09:40:06;20.70;99.90
19044;DHT22;9654;52.302;8.120;2022-07-23T09:42:33;21.00;99.90
19044;DHT22;9654;52.302;8.120;2022-07-23T09:45:00;21.00;99.90
19044;DHT22;9654;52.302;8.120;2022-07-23T09:47:29;20.70;99.90
19044;DHT22;9654;52.302;8.120;2022-07-23T09:50:01;20.60;99.90
19044;DHT22;9654;52.302;8.120;2022-07-23T09:52:32;20.60;99.90
19044;DHT22;9654;52.302;8.120;2022-07-23T09:55:00;20.70;99.90
19044;DHT22;9654;52.302;8.120;2022-07-23T09:57:27;20.70;99.90
19044;DHT22;9654;52.302;8.120;2022-07-23T09:59:58;20.90;99.90
19044;DHT22;9654;52.302;8.120;2022-07-23T10:02:28;21.20;99.90
19044;DHT22;9654;52.302;8.120;2022-07-23T10:04:55;21.60;99.90
19044;DHT22;9654;52.302;8.120;2022-07-23T10:07:22;21.60;99.90
19044;DHT22;9654;52.302;8.120;2022-07-23T10:09:54;21.60;99.90
19044;DHT22;9654;52.302;8.120;2022-07-23T10:12:21;21.70;99.90
19044;DHT22;9654;52.302;8.120;2022-07-23T10:14:57;21.90;99.90
19044;DHT22;9654;52.302;8.120;2022-07-23T10:17:25;22.10;99.90
19044;DHT22;9654;52.302;8.120;2022-07-23T10:19:53;22.00;99.90
19044;DHT22;9654;52.302;8.120;2022-07-23T10:22:23;22.10;99.90
19044;DHT22;9654;52.302;8.120;2022-07-23T10:25:00;21.90;99.90
19044;DHT22;9654;52.302;8.120;2022-07-23T10:27:51;22.00;99.90
19044;DHT22;9654;52.302;8.120;2022-07-23T10:30:25;22.10;99.90
19044;DHT22;9654;52.302;8.120;2022-07-23T10:33:04;21.80;99.90
19044;DHT22;9654;52.302;8.120;2022-07-23T10:35:39;21.60;99.90
19044;DHT22;9654;52.302;8.120;2022-07-23T10:38:15;21.90;99.90
19044;DHT22;9654;52.302;8.120;2022-07-23T10:41:04;22.00;99.90
19044;DHT22;9654;52.302;8.120;2022-07-23T10:43:31;22.30;99.90
19044;DHT22;9654;52.302;8.120;2022-07-23T10:46:22;22.50;99.90
19044;DHT22;9654;52.302;8.120;2022-07-23T10:49:20;22.60;99.90
19044;DHT22;9654;52.302;8.120;2022-07-23T10:52:21;22.20;99.90
19044;DHT22;9654;52.302;8.120;2022-07-23T10:54:50;22.20;99.90
19044;DHT22;9654;52.302;8.120;2022-07-23T10:57:19;22.50;99.90
19044;DHT22;9654;52.302;8.120;2022-07-23T11:00:16;22.50;99.90
19044;DHT22;9654;52.302;8.120;2022-07-23T11:02:45;22.20;99.90
19044;DHT22;9654;52.302;8.120;2022-07-23T11:05:13;22.20;99.90
19044;DHT22;9654;52.302;8.120;2022-07-23T11:08:09;22.40;99.90
19044;DHT22;9654;52.302;8.120;2022-07-23T11:10:38;22.60;99.90
19044;DHT22;9654;52.302;8.120;2022-07-23T11:13:35;23.10;99.90
19044;DHT22;9654;52.302;8.120;2022-07-23T11:16:08;23.40;99.90
19044;DHT22;9654;52.302;8.120;2022-07-23T11:18:59;23.60;99.90
19044;DHT22;9654;52.302;8.120;2022-07-23T11:21:46;23.80;99.90
19044;DHT22;9654;52.302;8.120;2022-07-23T11:24:15;23.70;99.90
19044;DHT22;9654;52.302;8.120;2022-07-23T11:26:48;23.70;99.90
19044;DHT22;9654;52.302;8.120;2022-07-23T11:29:45;23.40;99.90
19044;DHT22;9654;52.302;8.120;2022-07-23T11:32:29;23.20;99.90
19044;DHT22;9654;52.302;8.120;2022-07-23T11:34:56;23.20;99.90
19044;DHT22;9654;52.302;8.120;2022-07-23T11:37:43;23.40;99.90
19044;DHT22;9654;52.302;8.120;2022-07-23T11:40:12;23.80;99.90
19044;DHT22;9654;52.302;8.120;2022-07-23T11:42:50;23.90;99.90
19044;DHT22;9654;52.302;8.120;2022-07-23T11:45:19;23.60;99.90
19044;DHT22;9654;52.302;8.120;2022-07-23T11:47:46;23.70;99.90
19044;DHT22;9654;52.302;8.120;2022-07-23T11:50:12;23.70;99.90
19044;DHT22;9654;52.302;8.120;2022-07-23T11:52:39;23.90;99.90
19044;DHT22;9654;52.302;8.120;2022-07-23T11:55:08;23.90;99.90
19044;DHT22;9654;52.302;8.120;2022-07-23T11:57:36;23.80;99.90
19044;DHT22;9654;52.302;8.120;2022-07-23T12:00:07;23.90;99.90
19044;DHT22;9654;52.302;8.120;2022-07-23T12:02:36;24.30;99.90
19044;DHT22;9654;52.302;8.120;2022-07-23T12:05:04;24.30;99.90
19044;DHT22;9654;52.302;8.120;2022-07-23T12:07:32;24.60;99.90
19044;DHT22;9654;52.302;8.120;2022-07-23T12:10:03;24.30;99.90
19044;DHT22;9654;52.302;8.120;2022-07-23T12:12:35;24.00;99.90
19044;DHT22;9654;52.302;8.120;2022-07-23T12:15:03;24.00;99.90
19044;DHT22;9654;52.302;8.120;2022-07-23T12:17:32;24.40;99.90
19044;DHT22;9654;52.302;8.120;2022-07-23T12:20:01;24.80;99.90
19044;DHT22;9654;52.302;8.120;2022-07-23T12:22:35;24.70;99.90
19044;DHT22;9654;52.302;8.120;2022-07-23T12:25:05;24.40;99.90
19044;DHT22;9654;52.302;8.120;2022-07-23T12:27:32;24.60;99.90
19044;DHT22;9654;52.302;8.120;2022-07-23T12:29:59;24.70;99.90
19044;DHT22;9654;52.302;8.120;2022-07-23T12:32:43;24.60;99.90
19044;DHT22;9654;52.302;8.120;2022-07-23T12:35:11;24.70;99.90
19044;DHT22;9654;52.302;8.120;2022-07-23T12:37:40;24.40;99.90
19044;DHT22;9654;52.302;8.120;2022-07-23T12:40:21;24.00;99.90
19044;DHT22;9654;52.302;8.120;2022-07-23T12:42:50;24.20;99.90
19044;DHT22;9654;52.302;8.120;2022-07-23T12:45:18;24.60;99.90
19044;DHT22;9654;52.302;8.120;2022-07-23T12:47:52;24.70;99.90
19044;DHT22;9654;52.302;8.120;2022-07-23T12:50:36;24.80;99.90
19044;DHT22;9654;52.302;8.120;2022-07-23T12:53:05;25.20;99.90
19044;DHT22;9654;52.302;8.120;2022-07-23T12:55:32;25.70;99.90
19044;DHT22;9654;52.302;8.120;2022-07-23T12:58:06;25.60;99.90
19044;DHT22;9654;52.302;8.120;2022-07-23T13:00:50;25.20;99.90
19044;DHT22;9654;52.302;8.120;2022-07-23T13:03:24;25.00;99.90
19044;DHT22;9654;52.302;8.120;2022-07-23T13:05:53;25.20;99.90
19044;DHT22;9654;52.302;8.120;2022-07-23T13:08:21;25.30;99.90
19044;DHT22;9654;52.302;8.120;2022-07-23T13:10:49;25.70;99.90
19044;DHT22;9654;52.302;8.120;2022-07-23T13:13:19;25.90;99.90
19044;DHT22;9654;52.302;8.120;2022-07-23T13:15:46;25.70;99.90
19044;DHT22;9654;52.302;8.120;2022-07-23T13:18:13;25.70;99.90
19044;DHT22;9654;52.302;8.120;2022-07-23T13:20:39;25.70;99.90
19044;DHT22;9654;52.302;8.120;2022-07-23T13:23:08;25.60;99.90
19044;DHT22;9654;52.302;8.120;2022-07-23T13:25:34;25.50;99.90
19044;DHT22;9654;52.302;8.120;2022-07-23T13:28:01;25.60;99.90
19044;DHT22;9654;52.302;8.120;2022-07-23T13:30:28;25.60;99.90
19044;DHT22;9654;52.302;8.120;2022-07-23T13:32:55;25.70;99.90
19044;DHT22;9654;52.302;8.120;2022-07-23T13:35:22;25.90;99.90
19044;DHT22;9654;52.302;8.120;2022-07-23T13:37:49;25.70;99.90
19044;DHT22;9654;52.302;8.120;2022-07-23T13:40:18;25.90;99.90
19044;DHT22;9654;52.302;8.120;2022-07-23T13:42:44;25.90;99.90
19044;DHT22;9654;52.302;8.120;2022-07-23T13:45:11;26.30;99.90
19044;DHT22;9654;52.302;8.120;2022-07-23T13:47:38;26.40;99.90
19044;DHT22;9654;52.302;8.120;2022-07-23T13:50:06;25.90;99.90
19044;DHT22;9654;52.302;8.120;2022-07-23T13:52:33;25.70;99.90
19044;DHT22;9654;52.302;8.120;2022-07-23T13:55:00;25.60;99.90
19044;DHT22;9654;52.302;8.120;2022-07-23T13:57:29;25.70;99.90
19044;DHT22;9654;52.302;8.120;2022-07-23T13:59:55;25.90;99.90
19044;DHT22;9654;52.302;8.120;2022-07-23T14:02:22;25.80;99.90
19044;DHT22;9654;52.302;8.120;2022-07-23T14:04:50;25.70;99.90
19044;DHT22;9654;52.302;8.120;2022-07-23T14:07:17;25.60;99.90
19044;DHT22;9654;52.302;8.120;2022-07-23T14:09:44;25.70;99.90
19044;DHT22;9654;52.302;8.120;2022-07-23T14:12:11;26.20;99.90
19044;DHT22;9654;52.302;8.120;2022-07-23T14:14:39;26.30;99.90
19044;DHT22;9654;52.302;8.120;2022-07-23T14:17:07;26.80;99.90
19044;DHT22;9654;52.302;8.120;2022-07-23T14:19:34;26.80;99.90
19044;DHT22;9654;52.302;8.120;2022-07-23T14:22:01;26.80;99.90
19044;DHT22;9654;52.302;8.120;2022-07-23T14:24:27;26.90;99.90
19044;DHT22;9654;52.302;8.120;2022-07-23T14:26:54;26.70;99.90
19044;DHT22;9654;52.302;8.120;2022-07-23T14:29:21;26.50;99.90
19044;DHT22;9654;52.302;8.120;2022-07-23T14:31:49;26.40;99.90
19044;DHT22;9654;52.302;8.120;2022-07-23T14:34:16;26.70;99.90
19044;DHT22;9654;52.302;8.120;2022-07-23T14:36:43;27.00;99.90
19044;DHT22;9654;52.302;8.120;2022-07-23T14:39:10;27.20;99.80
19044;DHT22;9654;52.302;8.120;2022-07-23T14:41:38;26.90;99.90
19044;DHT22;9654;52.302;8.120;2022-07-23T14:44:05;27.10;99.80
19044;DHT22;9654;52.302;8.120;2022-07-23T14:46:31;27.20;99.70
19044;DHT22;9654;52.302;8.120;2022-07-23T14:48:59;27.20;99.20
19044;DHT22;9654;52.302;8.120;2022-07-23T14:51:26;26.70;99.60
19044;DHT22;9654;52.302;8.120;2022-07-23T14:53:53;26.50;99.80
19044;DHT22;9654;52.302;8.120;2022-07-23T14:56:20;26.20;99.90
19044;DHT22;9654;52.302;8.120;2022-07-23T14:58:47;26.10;99.90
19044;DHT22;9654;52.302;8.120;2022-07-23T15:01:14;26.20;99.90
19044;DHT22;9654;52.302;8.120;2022-07-23T15:03:40;26.30;99.90
19044;DHT22;9654;52.302;8.120;2022-07-23T15:06:10;26.50;99.90
19044;DHT22;9654;52.302;8.120;2022-07-23T15:08:37;26.90;99.90
19044;DHT22;9654;52.302;8.120;2022-07-23T15:11:03;26.90;99.70
19044;DHT22;9654;52.302;8.120;2022-07-23T15:13:30;27.00;99.90
19044;DHT22;9654;52.302;8.120;2022-07-23T15:15:57;27.20;99.10
19044;DHT22;9654;52.302;8.120;2022-07-23T15:18:24;27.20;99.00
19044;DHT22;9654;52.302;8.120;2022-07-23T15:20:51;27.00;99.40
19044;DHT22;9654;52.302;8.120;2022-07-23T15:23:19;26.30;99.30
19044;DHT22;9654;52.302;8.120;2022-07-23T15:25:46;25.70;99.80
19044;DHT22;9654;52.302;8.120;2022-07-23T15:28:13;25.50;99.90
19044;DHT22;9654;52.302;8.120;2022-07-23T15:30:40;25.50;99.90
19044;DHT22;9654;52.302;8.120;2022-07-23T15:33:07;25.60;99.90
19044;DHT22;9654;52.302;8.120;2022-07-23T15:35:33;25.80;99.90
19044;DHT22;9654;52.302;8.120;2022-07-23T15:38:00;25.90;99.90
19044;DHT22;9654;52.302;8.120;2022-07-23T15:40:28;26.30;99.90
19044;DHT22;9654;52.302;8.120;2022-07-23T15:42:55;26.50;99.40
19044;DHT22;9654;52.302;8.120;2022-07-23T15:45:22;26.50;99.60
19044;DHT22;9654;52.302;8.120;2022-07-23T15:47:48;26.60;99.50
19044;DHT22;9654;52.302;8.120;2022-07-23T15:50:15;26.30;99.30
19044;DHT22;9654;52.302;8.120;2022-07-23T15:52:42;26.20;99.80
19044;DHT22;9654;52.302;8.120;2022-07-23T15:55:09;26.00;99.50